Time;durP1;ratioP1;P1;durP2;ratioP2;P2;SDS_P1;SDS_P2;PMS_P1;PMS_P2;Temp;Humidity;BMP_temperature;BMP_pressure;BME280_temperature;BME280_humidity;BME280_pressure;Samples;Min_cycle;Max_cycle;Signal;HPM_P1;HPM_P2
2023/06/10 00:01:39;;;;;;;4.47;3.40;;;;;;;;;;5055887;28;20032;-76
2023/06/10 00:04:04;;;;;;;4.13;3.47;;;;;;;;;;5034759;28;20067;-76
2023/06/10 00:06:35;;;;;;;5.75;3.83;;;;;;;;;;5027695;28;20036;-76
2023/06/10 00:09:00;;;;;;;4.05;2.85;;;;;;;;;;5049542;28;20035;-76
2023/06/10 00:11:26;;;;;;;4.00;3.60;;;;;;;;;;5035743;28;20531;-76
2023/06/10 00:13:51;;;;;;;3.58;3.28;;;;;;;;;;5037614;28;20044;-75
2023/06/10 00:16:17;;;;;;;3.63;3.20;;;;;;;;;;5050436;28;20045;-77
2023/06/10 00:18:43;;;;;;;4.40;3.25;;;;;;;;;;5038556;28;20045;-78
2023/06/10 00:21:10;;;;;;;4.00;2.90;;;;;;;;;;5050263;28;20032;-76
2023/06/10 00:23:38;;;;;;;3.03;2.70;;;;;;;;;;5041708;28;20028;-77
2023/06/10 00:26:04;;;;;;;6.53;3.30;;;;;;;;;;5036742;28;20040;-77
2023/06/10 00:28:29;;;;;;;4.25;2.53;;;;;;;;;;5045811;28;20064;-76
2023/06/10 00:30:55;;;;;;;3.13;2.75;;;;;;;;;;5045123;28;20075;-76
2023/06/10 00:33:21;;;;;;;4.25;2.97;;;;;;;;;;5045208;28;20040;-77
2023/06/10 00:35:46;;;;;;;3.70;3.17;;;;;;;;;;5048748;28;20048;-77
2023/06/10 00:38:13;;;;;;;3.20;2.80;;;;;;;;;;5043577;28;20139;-75
2023/06/10 00:40:40;;;;;;;6.40;3.17;;;;;;;;;;5040700;28;20024;-76
2023/06/10 00:43:06;;;;;;;3.75;3.20;;;;;;;;;;5051337;28;20035;-77
2023/06/10 00:45:31;;;;;;;3.47;2.70;;;;;;;;;;5036821;28;20048;-76
2023/06/10 00:47:58;;;;;;;4.63;2.97;;;;;;;;;;5042673;28;20060;-77
2023/06/10 00:50:23;;;;;;;4.90;3.60;;;;;;;;;;5043232;28;20070;-76
2023/06/10 00:52:50;;;;;;;3.55;2.83;;;;;;;;;;5038059;28;20056;-75
2023/06/10 00:55:19;;;;;;;3.00;2.70;;;;;;;;;;5046360;28;20047;-77
2023/06/10 00:57:45;;;;;;;4.47;2.83;;;;;;;;;;5047159;28;20036;-77
2023/06/10 01:00:12;;;;;;;3.08;2.50;;;;;;;;;;5033674;28;20035;-76
2023/06/10 01:02:38;;;;;;;2.92;2.60;;;;;;;;;;5043931;28;20036;-77
2023/06/10 01:05:03;;;;;;;4.38;2.55;;;;;;;;;;5032586;28;20392;-77
2023/06/10 01:07:53;;;;;;;3.50;2.58;;;;;;;;;;5032761;28;20037;-77
2023/06/10 01:10:30;;;;;;;4.63;2.90;;;;;;;;;;5041942;28;20040;-75
2023/06/10 01:13:02;;;;;;;4.70;3.20;;;;;;;;;;5019273;28;20033;-76
2023/06/10 01:15:31;;;;;;;4.38;2.90;;;;;;;;;;5046832;28;20585;-76
2023/06/10 01:18:02;;;;;;;3.55;2.92;;;;;;;;;;5031435;28;20508;-77
2023/06/10 01:20:32;;;;;;;2.40;2.20;;;;;;;;;;5042019;28;20036;-76
2023/06/10 01:22:59;;;;;;;4.47;2.85;;;;;;;;;;5045502;28;20041;-76
2023/06/10 01:25:29;;;;;;;3.83;2.90;;;;;;;;;;5037351;28;20490;-75
2023/06/10 01:28:15;;;;;;;3.15;2.28;;;;;;;;;;5053840;28;20125;-75
2023/06/10 01:31:01;;;;;;;4.05;2.88;;;;;;;;;;5003003;28;20045;-75
2023/06/10 01:33:37;;;;;;;2.40;2.20;;;;;;;;;;5000806;28;20039;-76
2023/06/10 01:36:03;;;;;;;4.47;3.15;;;;;;;;;;5048820;28;20141;-75
2023/06/10 01:38:45;;;;;;;5.25;3.38;;;;;;;;;;5047743;28;20099;-76
2023/06/10 01:41:13;;;;;;;4.93;3.00;;;;;;;;;;5008455;28;20053;-75
2023/06/10 01:43:39;;;;;;;4.43;2.85;;;;;;;;;;5050194;28;20509;-75
2023/06/10 01:46:05;;;;;;;2.25;2.05;;;;;;;;;;5041068;28;20541;-76
2023/06/10 01:48:32;;;;;;;2.72;2.47;;;;;;;;;;5046975;28;20059;-76
2023/06/10 01:50:58;;;;;;;2.53;2.13;;;;;;;;;;5051826;28;20137;-74
2023/06/10 01:53:23;;;;;;;2.67;2.28;;;;;;;;;;5035323;28;20028;-75
2023/06/10 01:55:49;;;;;;;2.42;2.22;;;;;;;;;;5046294;28;20071;-75
2023/06/10 01:58:14;;;;;;;5.70;3.15;;;;;;;;;;5020934;28;20078;-74
2023/06/10 02:00:40;;;;;;;2.83;2.30;;;;;;;;;;5052943;28;20110;-75
2023/06/10 02:03:05;;;;;;;2.97;2.67;;;;;;;;;;5041970;28;20036;-76
2023/06/10 02:05:31;;;;;;;4.18;2.90;;;;;;;;;;5042610;28;20082;-74
2023/06/10 02:07:56;;;;;;;2.38;2.17;;;;;;;;;;5035682;28;20111;-77
2023/06/10 02:10:22;;;;;;;3.97;2.42;;;;;;;;;;5054862;28;20138;-77
2023/06/10 02:12:47;;;;;;;3.55;2.30;;;;;;;;;;5036963;28;20037;-76
2023/06/10 02:15:12;;;;;;;4.75;2.70;;;;;;;;;;5042840;28;20045;-76
2023/06/10 02:17:38;;;;;;;2.85;2.30;;;;;;;;;;5043788;28;20129;-76
2023/06/10 02:20:06;;;;;;;2.97;2.33;;;;;;;;;;5044153;28;20064;-74
2023/06/10 02:22:33;;;;;;;3.75;2.50;;;;;;;;;;5038330;28;20087;-74
2023/06/10 02:24:58;;;;;;;3.15;2.50;;;;;;;;;;5044826;28;20040;-77
2023/06/10 02:27:24;;;;;;;2.63;2.20;;;;;;;;;;5030963;28;20036;-76
2023/06/10 02:29:49;;;;;;;3.22;2.50;;;;;;;;;;5047270;28;20037;-76
2023/06/10 02:32:15;;;;;;;2.65;2.17;;;;;;;;;;5060162;28;20063;-76
2023/06/10 02:34:42;;;;;;;4.70;2.75;;;;;;;;;;5048725;28;20168;-75
2023/06/10 02:37:08;;;;;;;3.15;2.50;;;;;;;;;;5043805;28;20041;-75
2023/06/10 02:39:33;;;;;;;3.53;2.60;;;;;;;;;;5041605;28;20108;-76
2023/06/10 02:41:58;;;;;;;2.97;2.50;;;;;;;;;;5035445;28;20536;-77
2023/06/10 02:44:24;;;;;;;2.95;2.42;;;;;;;;;;5047707;28;20056;-76
2023/06/10 02:46:50;;;;;;;2.75;2.50;;;;;;;;;;5056915;28;20043;-78
2023/06/10 02:49:15;;;;;;;3.28;2.70;;;;;;;;;;5028240;28;20032;-77
2023/06/10 02:51:41;;;;;;;5.43;2.95;;;;;;;;;;5033074;28;20033;-76
2023/06/10 02:54:06;;;;;;;3.55;2.55;;;;;;;;;;5049166;28;20119;-77
2023/06/10 02:56:33;;;;;;;5.35;2.63;;;;;;;;;;5041940;28;20533;-76
2023/06/10 02:58:58;;;;;;;3.33;2.30;;;;;;;;;;5050388;28;20631;-78
2023/06/10 03:01:24;;;;;;;4.22;2.95;;;;;;;;;;5049681;28;20045;-77
2023/06/10 03:03:50;;;;;;;4.53;2.80;;;;;;;;;;5038448;28;20386;-74
2023/06/10 03:06:16;;;;;;;3.60;2.80;;;;;;;;;;5049788;28;20033;-76
2023/06/10 03:08:42;;;;;;;2.55;2.20;;;;;;;;;;5036668;28;20037;-75
2023/06/10 03:11:07;;;;;;;4.80;2.70;;;;;;;;;;5049827;28;20512;-76
2023/06/10 03:13:33;;;;;;;2.70;2.30;;;;;;;;;;5043199;28;20135;-75
2023/06/10 03:15:58;;;;;;;3.50;2.58;;;;;;;;;;5053079;28;20112;-75
2023/06/10 03:18:27;;;;;;;2.55;2.35;;;;;;;;;;5034091;28;20041;-75
2023/06/10 03:20:54;;;;;;;3.58;2.90;;;;;;;;;;5045872;28;20063;-74
2023/06/10 03:23:20;;;;;;;5.00;2.78;;;;;;;;;;5017151;28;20508;-74
2023/06/10 03:25:46;;;;;;;3.63;2.50;;;;;;;;;;5051546;28;20036;-74
2023/06/10 03:28:11;;;;;;;3.35;2.75;;;;;;;;;;5046751;28;20063;-75
2023/06/10 03:30:37;;;;;;;4.72;2.80;;;;;;;;;;5047490;28;20044;-75
2023/06/10 03:33:02;;;;;;;2.00;1.85;;;;;;;;;;5035760;28;20609;-74
2023/06/10 03:35:27;;;;;;;3.55;2.90;;;;;;;;;;5048392;28;20547;-76
2023/06/10 03:37:53;;;;;;;2.83;2.28;;;;;;;;;;5034596;28;20566;-75
2023/06/10 03:40:18;;;;;;;4.32;2.53;;;;;;;;;;5044701;28;20040;-75
2023/06/10 03:42:44;;;;;;;3.97;2.67;;;;;;;;;;5042042;28;20064;-75
2023/06/10 03:47:40;;;;;;;4.53;2.75;;;;;;;;;;4972612;28;20049;-74
2023/06/10 03:50:07;;;;;;;5.10;2.90;;;;;;;;;;4971635;28;20394;-75
2023/06/10 03:52:33;;;;;;;5.93;3.38;;;;;;;;;;4961475;28;20047;-74
2023/06/10 03:54:59;;;;;;;5.10;2.72;;;;;;;;;;4990182;28;20037;-74
2023/06/10 03:57:24;;;;;;;4.32;2.65;;;;;;;;;;4983084;28;20521;-74
2023/06/10 03:59:50;;;;;;;4.63;2.97;;;;;;;;;;4978370;28;20053;-75
2023/06/10 04:02:16;;;;;;;3.67;2.85;;;;;;;;;;4988394;28;20045;-75
2023/06/10 04:04:41;;;;;;;3.85;2.70;;;;;;;;;;4961996;28;20502;-75
2023/06/10 04:07:08;;;;;;;3.60;2.88;;;;;;;;;;4987420;28;20041;-74
2023/06/10 04:09:35;;;;;;;5.35;3.40;;;;;;;;;;4971064;28;20724;-74
2023/06/10 04:12:01;;;;;;;4.78;3.38;;;;;;;;;;4984468;28;20087;-75
2023/06/10 04:14:27;;;;;;;5.15;3.50;;;;;;;;;;4975268;28;20054;-74
2023/06/10 04:16:53;;;;;;;6.22;3.30;;;;;;;;;;4983065;28;20115;-75
2023/06/10 04:19:18;;;;;;;4.93;3.13;;;;;;;;;;4980322;28;21521;-75
2023/06/10 04:21:44;;;;;;;4.53;3.28;;;;;;;;;;4989250;28;20067;-75
2023/06/10 04:24:09;;;;;;;3.80;3.13;;;;;;;;;;4984534;28;20084;-74
2023/06/10 04:26:37;;;;;;;5.07;3.60;;;;;;;;;;4986369;28;20042;-74
2023/06/10 04:29:03;;;;;;;5.55;3.33;;;;;;;;;;4960720;28;20049;-74
2023/06/10 04:31:28;;;;;;;6.20;3.45;;;;;;;;;;4984660;28;20038;-73
2023/06/10 04:33:54;;;;;;;4.60;3.45;;;;;;;;;;4969120;28;20057;-74
2023/06/10 04:36:19;;;;;;;4.15;3.05;;;;;;;;;;4986924;28;20049;-75
2023/06/10 04:38:45;;;;;;;3.70;3.15;;;;;;;;;;4988947;28;20120;-74
2023/06/10 04:41:11;;;;;;;4.55;3.08;;;;;;;;;;4967492;28;20030;-75
2023/06/10 04:43:36;;;;;;;4.63;3.50;;;;;;;;;;4982990;28;20073;-74
2023/06/10 04:46:02;;;;;;;8.18;3.92;;;;;;;;;;4986384;28;20099;-74
2023/06/10 04:48:27;;;;;;;5.35;3.80;;;;;;;;;;4972356;28;20143;-74
2023/06/10 04:50:52;;;;;;;4.70;3.50;;;;;;;;;;4970131;28;20050;-74
2023/06/10 04:53:18;;;;;;;4.25;3.10;;;;;;;;;;4986417;28;20514;-74
2023/06/10 04:55:43;;;;;;;5.95;3.65;;;;;;;;;;4958287;28;20050;-75
2023/06/10 04:58:09;;;;;;;5.95;3.03;;;;;;;;;;4995500;28;20409;-75
2023/06/10 05:00:34;;;;;;;6.75;3.90;;;;;;;;;;4975567;28;20034;-74
2023/06/10 05:03:00;;;;;;;3.95;3.10;;;;;;;;;;4966731;28;20380;-74
2023/06/10 05:05:25;;;;;;;5.25;3.33;;;;;;;;;;5005735;28;20045;-74
2023/06/10 05:07:50;;;;;;;6.45;3.00;;;;;;;;;;4993764;28;20045;-75
2023/06/10 05:10:16;;;;;;;5.22;3.20;;;;;;;;;;4965123;28;20482;-74
2023/06/10 05:12:42;;;;;;;5.05;3.30;;;;;;;;;;4994729;28;20609;-75
2023/06/10 05:15:08;;;;;;;4.18;3.45;;;;;;;;;;4982107;28;20042;-74
2023/06/10 05:17:34;;;;;;;3.83;3.42;;;;;;;;;;4994385;28;20096;-74
2023/06/10 05:20:00;;;;;;;4.47;3.33;;;;;;;;;;4994865;28;20069;-74
2023/06/10 05:22:27;;;;;;;5.60;3.72;;;;;;;;;;4966201;28;20041;-75
2023/06/10 05:24:52;;;;;;;7.45;4.20;;;;;;;;;;4954417;28;20489;-75
2023/06/10 05:27:18;;;;;;;5.45;3.92;;;;;;;;;;4954592;28;20062;-75
2023/06/10 05:29:45;;;;;;;5.32;3.30;;;;;;;;;;4959582;28;20125;-75
2023/06/10 05:32:10;;;;;;;5.53;3.33;;;;;;;;;;4977389;28;20041;-74
2023/06/10 05:34:36;;;;;;;4.93;3.25;;;;;;;;;;4991069;28;20053;-75
2023/06/10 05:37:01;;;;;;;4.57;3.30;;;;;;;;;;4966795;28;20042;-75
2023/06/10 05:39:27;;;;;;;5.10;3.20;;;;;;;;;;4975198;28;20169;-75
2023/06/10 05:41:52;;;;;;;3.47;3.10;;;;;;;;;;4990138;28;20053;-75
2023/06/10 05:44:18;;;;;;;7.32;3.20;;;;;;;;;;4975675;28;20034;-75
2023/06/10 05:46:43;;;;;;;4.75;3.67;;;;;;;;;;4971666;28;20054;-76
2023/06/10 05:49:08;;;;;;;9.45;3.65;;;;;;;;;;4969417;28;20041;-75
2023/06/10 05:51:34;;;;;;;3.38;2.88;;;;;;;;;;4988631;28;20052;-75
2023/06/10 05:53:59;;;;;;;2.90;2.20;;;;;;;;;;4965044;28;20038;-75
2023/06/10 05:56:25;;;;;;;4.72;4.22;;;;;;;;;;4990326;28;20042;-75
2023/06/10 05:58:51;;;;;;;5.68;3.38;;;;;;;;;;4972917;28;20041;-75
2023/06/10 06:01:16;;;;;;;5.00;3.72;;;;;;;;;;4972503;28;20411;-75
2023/06/10 06:03:41;;;;;;;4.70;3.30;;;;;;;;;;4989447;28;20706;-75
2023/06/10 06:06:08;;;;;;;5.60;3.65;;;;;;;;;;4989088;28;20124;-75
2023/06/10 06:08:33;;;;;;;5.10;3.35;;;;;;;;;;4992274;28;20445;-75
2023/06/10 06:10:59;;;;;;;5.45;3.35;;;;;;;;;;4992768;28;20047;-75
2023/06/10 06:13:24;;;;;;;5.82;3.47;;;;;;;;;;4969893;28;20078;-75
2023/06/10 06:15:50;;;;;;;6.28;3.63;;;;;;;;;;4989161;28;20076;-74
2023/06/10 06:18:16;;;;;;;5.90;3.42;;;;;;;;;;4968947;28;20045;-75
2023/06/10 06:20:41;;;;;;;6.95;3.42;;;;;;;;;;4974873;28;20103;-74
2023/06/10 06:23:09;;;;;;;6.43;3.70;;;;;;;;;;4991810;28;20068;-75
2023/06/10 06:25:35;;;;;;;5.30;3.90;;;;;;;;;;4980498;28;20030;-75
2023/06/10 06:28:01;;;;;;;3.90;3.35;;;;;;;;;;4986892;28;20852;-75
2023/06/10 06:30:26;;;;;;;3.83;3.42;;;;;;;;;;4990932;28;20038;-78
2023/06/10 06:32:52;;;;;;;5.88;3.85;;;;;;;;;;4973412;28;20096;-75
2023/06/10 06:35:17;;;;;;;4.90;3.70;;;;;;;;;;4985066;28;20560;-76
2023/06/10 06:37:43;;;;;;;5.47;4.15;;;;;;;;;;5000799;28;20143;-75
2023/06/10 06:40:08;;;;;;;5.30;4.03;;;;;;;;;;4993081;28;20025;-74
2023/06/10 06:42:34;;;;;;;6.10;4.10;;;;;;;;;;4987505;28;20124;-75
2023/06/10 06:44:59;;;;;;;3.17;2.85;;;;;;;;;;5005270;28;20041;-74
2023/06/10 06:47:26;;;;;;;6.82;4.10;;;;;;;;;;5001127;28;20509;-75
2023/06/10 06:49:51;;;;;;;3.75;3.28;;;;;;;;;;4990866;28;20063;-74
2023/06/10 06:52:17;;;;;;;4.13;3.30;;;;;;;;;;5006150;28;20033;-75
2023/06/10 06:54:42;;;;;;;5.05;3.95;;;;;;;;;;4995088;28;20033;-75
2023/06/10 06:57:08;;;;;;;6.97;4.43;;;;;;;;;;5004823;28;20033;-75
2023/06/10 06:59:33;;;;;;;4.95;4.28;;;;;;;;;;4989998;28;20042;-74
2023/06/10 07:01:59;;;;;;;6.78;4.53;;;;;;;;;;4986456;28;20426;-74
2023/06/10 07:04:24;;;;;;;6.20;4.40;;;;;;;;;;4972461;28;20101;-75
2023/06/10 07:06:50;;;;;;;6.20;4.45;;;;;;;;;;4989586;28;20109;-75
2023/06/10 07:09:15;;;;;;;3.05;2.60;;;;;;;;;;4979052;28;20052;-74
2023/06/10 07:11:41;;;;;;;6.28;4.32;;;;;;;;;;4990232;28;20042;-74
2023/06/10 07:14:07;;;;;;;6.88;5.03;;;;;;;;;;4989634;28;20044;-75
2023/06/10 07:16:32;;;;;;;6.53;5.45;;;;;;;;;;4979501;28;20041;-75
2023/06/10 07:18:58;;;;;;;7.60;5.50;;;;;;;;;;4981131;28;20045;-75
2023/06/10 07:21:23;;;;;;;6.13;5.30;;;;;;;;;;4970793;28;20486;-74
2023/06/10 07:23:52;;;;;;;7.43;5.20;;;;;;;;;;4982986;28;20030;-75
2023/06/10 07:26:17;;;;;;;8.25;5.70;;;;;;;;;;4987015;28;20042;-75
2023/06/10 07:28:43;;;;;;;8.13;5.55;;;;;;;;;;4989462;28;20060;-75
2023/06/10 07:31:08;;;;;;;5.35;4.82;;;;;;;;;;4979841;28;20050;-75
2023/06/10 07:33:34;;;;;;;4.45;3.25;;;;;;;;;;4986285;28;20042;-74
2023/06/10 07:35:59;;;;;;;10.48;5.97;;;;;;;;;;4986249;28;20116;-75
2023/06/10 07:38:26;;;;;;;7.82;6.05;;;;;;;;;;4987467;28;20041;-75
2023/06/10 07:40:51;;;;;;;8.93;6.10;;;;;;;;;;4988541;28;20049;-74
2023/06/10 07:43:17;;;;;;;3.60;3.20;;;;;;;;;;4984342;28;20026;-75
2023/06/10 07:45:43;;;;;;;6.40;5.65;;;;;;;;;;4972846;28;20481;-75
2023/06/10 07:48:09;;;;;;;9.45;6.25;;;;;;;;;;4993748;28;20034;-75
2023/06/10 07:50:34;;;;;;;6.60;4.78;;;;;;;;;;4958890;28;20171;-75
2023/06/10 07:53:00;;;;;;;6.25;5.63;;;;;;;;;;4990067;28;20104;-75
2023/06/10 07:55:26;;;;;;;9.05;6.88;;;;;;;;;;4976578;28;21717;-75
2023/06/10 07:57:52;;;;;;;7.20;6.50;;;;;;;;;;4991446;28;20038;-75
2023/06/10 08:00:17;;;;;;;7.30;5.30;;;;;;;;;;4976730;28;20097;-75
2023/06/10 08:02:43;;;;;;;9.00;6.13;;;;;;;;;;4987402;28;20038;-75
2023/06/10 08:05:09;;;;;;;7.97;6.63;;;;;;;;;;4983239;28;20124;-75
2023/06/10 08:07:35;;;;;;;6.85;5.90;;;;;;;;;;4991430;28;20050;-75
2023/06/10 08:10:01;;;;;;;5.65;4.93;;;;;;;;;;4990645;28;20093;-75
2023/06/10 08:12:26;;;;;;;4.38;3.88;;;;;;;;;;4968651;28;20034;-75
2023/06/10 08:14:51;;;;;;;7.40;5.32;;;;;;;;;;4962067;28;20055;-76
2023/06/10 08:17:17;;;;;;;7.70;6.13;;;;;;;;;;4984003;28;20049;-75
2023/06/10 08:19:42;;;;;;;8.23;5.80;;;;;;;;;;4978110;28;20045;-75
2023/06/10 08:22:08;;;;;;;8.38;6.20;;;;;;;;;;4990593;28;20093;-75
2023/06/10 08:24:33;;;;;;;8.25;6.50;;;;;;;;;;4985337;28;20044;-76
2023/06/10 08:26:58;;;;;;;7.80;6.32;;;;;;;;;;4977416;28;20669;-75
2023/06/10 08:29:25;;;;;;;6.00;5.30;;;;;;;;;;4987530;28;20065;-75
2023/06/10 08:31:51;;;;;;;6.85;6.15;;;;;;;;;;4983540;28;20058;-75
2023/06/10 08:34:16;;;;;;;8.18;6.95;;;;;;;;;;4969128;28;20061;-75
2023/06/10 08:36:44;;;;;;;7.53;6.05;;;;;;;;;;4989078;28;20145;-75
2023/06/10 08:39:10;;;;;;;9.20;6.22;;;;;;;;;;4989086;28;20045;-75
2023/06/10 08:41:40;;;;;;;7.47;5.75;;;;;;;;;;4956090;28;20104;-75
2023/06/10 08:44:25;;;;;;;5.78;4.85;;;;;;;;;;4982695;28;20116;-75
2023/06/10 08:46:53;;;;;;;7.88;6.63;;;;;;;;;;4980232;28;20047;-76
2023/06/10 08:49:22;;;;;;;6.75;6.00;;;;;;;;;;4962957;28;20046;-75
2023/06/10 08:51:51;;;;;;;6.43;5.82;;;;;;;;;;4977266;28;20425;-76
2023/06/10 08:54:21;;;;;;;6.82;6.07;;;;;;;;;;4964053;28;20066;-75
2023/06/10 08:56:50;;;;;;;9.05;6.57;;;;;;;;;;4990236;28;20121;-75
2023/06/10 08:59:16;;;;;;;7.07;6.33;;;;;;;;;;4980103;28;20061;-75
2023/06/10 09:01:43;;;;;;;8.68;5.93;;;;;;;;;;4990079;28;20136;-75
2023/06/10 09:04:09;;;;;;;6.20;5.60;;;;;;;;;;4990116;28;20048;-76
2023/06/10 09:06:37;;;;;;;7.65;5.97;;;;;;;;;;4980301;28;20052;-76
2023/06/10 09:09:06;;;;;;;7.93;6.15;;;;;;;;;;4989842;28;20152;-76
2023/06/10 09:11:32;;;;;;;7.75;6.40;;;;;;;;;;4977251;28;20080;-76
2023/06/10 09:13:57;;;;;;;9.00;6.55;;;;;;;;;;4992763;28;20046;-76
2023/06/10 09:16:24;;;;;;;8.15;6.20;;;;;;;;;;4987731;28;20058;-75
2023/06/10 09:18:54;;;;;;;7.20;6.57;;;;;;;;;;4975311;28;20137;-76
2023/06/10 09:21:25;;;;;;;6.57;5.88;;;;;;;;;;4990033;28;20453;-75
2023/06/10 09:23:51;;;;;;;7.50;6.78;;;;;;;;;;4970579;28;20030;-76
2023/06/10 09:26:16;;;;;;;8.52;6.82;;;;;;;;;;4974690;28;20605;-75
2023/06/10 09:28:49;;;;;;;7.75;6.60;;;;;;;;;;4971665;28;20514;-76
2023/06/10 09:31:18;;;;;;;7.10;6.38;;;;;;;;;;4983537;28;20042;-76
2023/06/10 09:33:44;;;;;;;6.75;6.05;;;;;;;;;;4983656;28;20064;-75
2023/06/10 09:36:11;;;;;;;8.73;6.60;;;;;;;;;;4962609;28;20061;-76
2023/06/10 09:38:37;;;;;;;7.50;6.53;;;;;;;;;;4976818;28;20178;-76
2023/06/10 09:41:03;;;;;;;9.60;6.80;;;;;;;;;;4989516;28;20042;-76
2023/06/10 09:43:43;;;;;;;7.85;6.95;;;;;;;;;;4989094;28;20092;-76
2023/06/10 09:46:19;;;;;;;8.18;6.03;;;;;;;;;;4976817;28;20046;-76
2023/06/10 09:48:48;;;;;;;9.57;6.85;;;;;;;;;;4973431;28;20034;-76
2023/06/10 09:51:14;;;;;;;8.35;6.85;;;;;;;;;;4958018;28;20040;-76
2023/06/10 09:53:40;;;;;;;56.63;9.20;;;;;;;;;;4976528;28;20119;-76
2023/06/10 09:56:06;;;;;;;9.90;7.30;;;;;;;;;;4996264;28;20061;-76
2023/06/10 09:58:38;;;;;;;7.63;6.82;;;;;;;;;;4968042;28;20573;-76
2023/06/10 10:01:10;;;;;;;8.77;7.07;;;;;;;;;;4993529;28;20038;-76
2023/06/10 10:03:50;;;;;;;7.90;7.10;;;;;;;;;;4996809;28;20049;-76
2023/06/10 10:06:17;;;;;;;7.18;6.13;;;;;;;;;;4985967;28;20398;-76
2023/06/10 10:08:43;;;;;;;7.00;6.30;;;;;;;;;;4978718;28;20472;-76
2023/06/10 10:11:10;;;;;;;8.10;6.68;;;;;;;;;;4967336;28;20033;-76
2023/06/10 10:13:37;;;;;;;7.75;6.95;;;;;;;;;;4973163;28;20080;-76
2023/06/10 10:16:10;;;;;;;8.20;6.80;;;;;;;;;;4970245;28;20035;-76
2023/06/10 10:18:39;;;;;;;6.82;6.05;;;;;;;;;;4957510;28;20580;-76
2023/06/10 10:21:13;;;;;;;7.33;6.67;;;;;;;;;;4978114;28;20082;-76
2023/06/10 10:24:00;;;;;;;7.22;6.53;;;;;;;;;;4986658;28;20033;-76
2023/06/10 10:26:27;;;;;;;6.78;6.13;;;;;;;;;;4988073;28;20034;-76
2023/06/10 10:29:09;;;;;;;7.82;7.03;;;;;;;;;;4984298;28;20049;-76
2023/06/10 10:31:36;;;;;;;6.60;6.00;;;;;;;;;;4978667;28;20041;-77
2023/06/10 10:34:06;;;;;;;7.60;5.95;;;;;;;;;;4995724;28;20033;-76
2023/06/10 10:36:32;;;;;;;;;;;;;;;;;;4989454;28;20497;-76
2023/06/10 10:38:58;;;;;;;7.03;6.30;;;;;;;;;;4994698;28;19968;-76
2023/06/10 10:41:26;;;;;;;6.65;6.05;;;;;;;;;;4991821;28;20074;-76
2023/06/10 10:43:52;;;;;;;7.28;6.57;;;;;;;;;;4981058;28;20030;-76
2023/06/10 10:46:18;;;;;;;6.50;5.82;;;;;;;;;;4974265;28;20053;-76
2023/06/10 10:48:44;;;;;;;6.22;5.60;;;;;;;;;;5002908;28;20560;-76
2023/06/10 10:51:10;;;;;;;6.10;5.60;;;;;;;;;;5003155;28;20033;-76
2023/06/10 10:53:39;;;;;;;6.80;5.55;;;;;;;;;;4987817;28;20037;-76
2023/06/10 10:56:06;;;;;;;8.63;5.80;;;;;;;;;;5001464;28;20057;-76
2023/06/10 10:58:32;;;;;;;6.13;5.47;;;;;;;;;;4967164;28;20146;-76
2023/06/10 11:00:58;;;;;;;6.00;4.97;;;;;;;;;;5003238;28;20168;-76
2023/06/10 11:03:28;;;;;;;5.60;4.97;;;;;;;;;;5002904;28;20025;-76
2023/06/10 11:05:57;;;;;;;4.95;4.43;;;;;;;;;;5000240;28;20080;-76
2023/06/10 11:08:28;;;;;;;4.97;4.17;;;;;;;;;;5001269;28;20121;-76
2023/06/10 11:10:54;;;;;;;6.28;4.28;;;;;;;;;;4984694;28;20037;-76
2023/06/10 11:13:21;;;;;;;4.90;4.30;;;;;;;;;;4973068;28;20038;-76
2023/06/10 11:15:49;;;;;;;4.78;4.30;;;;;;;;;;4987609;28;20504;-76
2023/06/10 11:18:19;;;;;;;5.43;4.63;;;;;;;;;;4975752;28;20131;-76
2023/06/10 11:20:55;;;;;;;6.18;4.43;;;;;;;;;;4987815;28;20921;-76
2023/06/10 11:23:30;;;;;;;113.72;12.70;;;;;;;;;;4997104;28;20413;-76
2023/06/10 11:26:18;;;;;;;5.35;4.80;;;;;;;;;;4959443;28;20040;-76
2023/06/10 11:28:46;;;;;;;6.00;4.97;;;;;;;;;;4989575;28;20046;-76
2023/06/10 11:31:32;;;;;;;15.38;5.53;;;;;;;;;;4986593;28;20402;-76
2023/06/10 11:34:06;;;;;;;5.78;5.10;;;;;;;;;;5000289;28;20046;-76
2023/06/10 11:36:33;;;;;;;5.78;5.32;;;;;;;;;;4938963;28;20046;-76
2023/06/10 11:39:04;;;;;;;6.32;4.80;;;;;;;;;;5000426;28;20195;-76
2023/06/10 11:41:30;;;;;;;5.55;4.78;;;;;;;;;;4969982;28;20112;-76
2023/06/10 11:44:08;;;;;;;4.90;4.40;;;;;;;;;;4993101;28;20047;-76
2023/06/10 11:46:34;;;;;;;4.70;4.30;;;;;;;;;;4988977;28;20111;-76
2023/06/10 11:49:02;;;;;;;7.10;4.55;;;;;;;;;;4955870;28;20077;-76
2023/06/10 11:51:31;;;;;;;5.47;4.70;;;;;;;;;;4989571;28;20082;-76
2023/06/10 11:53:56;;;;;;;5.00;4.50;;;;;;;;;;4990786;28;20034;-76
2023/06/10 11:56:23;;;;;;;4.70;4.30;;;;;;;;;;4995357;28;20099;-76
2023/06/10 11:59:04;;;;;;;7.38;4.90;;;;;;;;;;4983708;28;20049;-76
2023/06/10 12:01:31;;;;;;;5.13;4.63;;;;;;;;;;4947174;28;20042;-76
2023/06/10 12:03:58;;;;;;;6.00;4.78;;;;;;;;;;4977990;28;20152;-76
2023/06/10 12:06:23;;;;;;;6.70;5.80;;;;;;;;;;4987847;28;20057;-76
2023/06/10 12:08:48;;;;;;;5.47;4.95;;;;;;;;;;4996411;28;20076;-76
2023/06/10 12:11:14;;;;;;;34.95;7.50;;;;;;;;;;4981827;28;20037;-76
2023/06/10 12:13:50;;;;;;;6.93;5.97;;;;;;;;;;4942396;28;20518;-76
2023/06/10 12:16:16;;;;;;;7.75;5.50;;;;;;;;;;4984447;28;20041;-76
2023/06/10 12:18:45;;;;;;;6.70;5.80;;;;;;;;;;4990589;28;20037;-76
2023/06/10 12:21:23;;;;;;;7.07;5.90;;;;;;;;;;4988717;28;20522;-76
2023/06/10 12:24:10;;;;;;;6.97;6.28;;;;;;;;;;4977247;28;20038;-76
2023/06/10 12:26:40;;;;;;;7.05;6.05;;;;;;;;;;4949220;28;20819;-76
2023/06/10 12:29:24;;;;;;;5.93;5.32;;;;;;;;;;4987705;28;20035;-76
2023/06/10 12:32:00;;;;;;;6.25;5.68;;;;;;;;;;4990552;28;20103;-76
2023/06/10 12:34:39;;;;;;;6.05;5.53;;;;;;;;;;4983062;28;20041;-76
2023/06/10 12:37:13;;;;;;;7.18;5.90;;;;;;;;;;4931049;28;20055;-76
2023/06/10 12:39:40;;;;;;;6.90;6.20;;;;;;;;;;4976793;28;20072;-76
2023/06/10 12:42:09;;;;;;;7.50;6.28;;;;;;;;;;4981468;28;20125;-76
2023/06/10 12:44:39;;;;;;;7.15;6.45;;;;;;;;;;4977380;28;20046;-76
2023/06/10 12:47:12;;;;;;;6.90;6.20;;;;;;;;;;4955258;28;20890;-75
2023/06/10 12:49:38;;;;;;;8.32;6.47;;;;;;;;;;4934930;28;20447;-76
2023/06/10 12:52:04;;;;;;;8.25;6.53;;;;;;;;;;4960821;28;20081;-76
2023/06/10 12:54:30;;;;;;;8.32;5.70;;;;;;;;;;4974589;28;20109;-76
2023/06/10 12:56:55;;;;;;;7.03;6.43;;;;;;;;;;4985127;28;20049;-76
2023/06/10 12:59:20;;;;;;;7.88;6.10;;;;;;;;;;4992330;28;20034;-76
2023/06/10 13:01:52;;;;;;;7.72;6.05;;;;;;;;;;4971482;28;20049;-77
2023/06/10 13:04:18;;;;;;;7.15;5.55;;;;;;;;;;4984355;28;20037;-76
2023/06/10 13:06:44;;;;;;;5.65;5.18;;;;;;;;;;4973971;28;20080;-76
2023/06/10 13:09:09;;;;;;;8.13;5.60;;;;;;;;;;4986477;28;20095;-76
2023/06/10 13:11:36;;;;;;;6.20;5.63;;;;;;;;;;4985048;28;20045;-76
2023/06/10 13:14:04;;;;;;;6.82;5.93;;;;;;;;;;4992628;28;20045;-76
2023/06/10 13:16:30;;;;;;;7.22;5.90;;;;;;;;;;4964265;28;20147;-76
2023/06/10 13:18:55;;;;;;;7.70;6.03;;;;;;;;;;4991116;28;20073;-76
2023/06/10 13:21:21;;;;;;;6.65;5.82;;;;;;;;;;4989962;28;20068;-76
2023/06/10 13:23:47;;;;;;;6.40;5.72;;;;;;;;;;4966073;28;20031;-76
2023/06/10 13:26:13;;;;;;;6.93;6.03;;;;;;;;;;4984179;28;20048;-76
2023/06/10 13:28:39;;;;;;;5.70;5.20;;;;;;;;;;4974409;28;20788;-76
2023/06/10 13:31:04;;;;;;;5.63;5.13;;;;;;;;;;4965587;28;20041;-76
2023/06/10 13:33:30;;;;;;;6.13;5.63;;;;;;;;;;4997273;28;20030;-76
2023/06/10 13:35:55;;;;;;;5.88;5.15;;;;;;;;;;4994229;28;20428;-76
2023/06/10 13:38:20;;;;;;;5.97;5.40;;;;;;;;;;4990230;28;20034;-76
2023/06/10 13:40:46;;;;;;;8.07;5.72;;;;;;;;;;4994665;28;20034;-76
2023/06/10 13:43:13;;;;;;;5.45;4.95;;;;;;;;;;4984841;28;20473;-76
2023/06/10 13:45:38;;;;;;;5.78;5.25;;;;;;;;;;4983229;28;20033;-76
2023/06/10 13:48:05;;;;;;;5.55;5.05;;;;;;;;;;4972962;28;20468;-76
2023/06/10 13:50:31;;;;;;;6.22;5.53;;;;;;;;;;4994182;28;20033;-76
2023/06/10 13:52:56;;;;;;;6.40;5.80;;;;;;;;;;4988750;28;20401;-76
2023/06/10 13:55:23;;;;;;;6.47;5.82;;;;;;;;;;4978961;28;20518;-76
2023/06/10 13:57:49;;;;;;;6.25;5.65;;;;;;;;;;4970042;28;20037;-76
2023/06/10 14:00:15;;;;;;;7.13;5.30;;;;;;;;;;4974426;28;20118;-76
2023/06/10 14:02:40;;;;;;;6.30;5.70;;;;;;;;;;4993890;28;20084;-76
2023/06/10 14:05:08;;;;;;;6.28;5.78;;;;;;;;;;4993057;28;20513;-76
2023/06/10 14:07:33;;;;;;;6.72;5.07;;;;;;;;;;4990170;28;20060;-76
2023/06/10 14:09:58;;;;;;;5.97;5.47;;;;;;;;;;4992526;28;20080;-76
2023/06/10 14:12:24;;;;;;;6.80;5.78;;;;;;;;;;4970725;28;20048;-76
2023/06/10 14:14:50;;;;;;;6.57;5.72;;;;;;;;;;4961529;28;20044;-76
2023/06/10 14:17:15;;;;;;;6.55;5.72;;;;;;;;;;4968881;28;20049;-76
2023/06/10 14:19:40;;;;;;;6.35;5.72;;;;;;;;;;4973840;28;20053;-76
2023/06/10 14:22:07;;;;;;;6.15;5.63;;;;;;;;;;4975553;28;20158;-76
2023/06/10 14:24:32;;;;;;;6.22;5.63;;;;;;;;;;4974652;28;20068;-76
2023/06/10 14:26:58;;;;;;;7.03;6.35;;;;;;;;;;4972497;28;20498;-76
2023/06/10 14:29:24;;;;;;;6.70;6.00;;;;;;;;;;4985401;28;20034;-76
2023/06/10 14:31:49;;;;;;;7.35;5.78;;;;;;;;;;4979519;28;20034;-76
2023/06/10 14:34:14;;;;;;;6.65;5.88;;;;;;;;;;4982997;28;20046;-76
2023/06/10 14:36:40;;;;;;;6.22;5.63;;;;;;;;;;4990146;28;20026;-76
2023/06/10 14:39:05;;;;;;;6.30;5.80;;;;;;;;;;4994578;28;20181;-76
2023/06/10 14:41:31;;;;;;;6.68;5.85;;;;;;;;;;4954067;28;20046;-76
2023/06/10 14:43:56;;;;;;;7.25;6.65;;;;;;;;;;4978174;28;20502;-76
2023/06/10 14:46:22;;;;;;;6.85;6.15;;;;;;;;;;4977289;28;20584;-76